createdAt,value
2017-09-04T00:01:50.320Z,99.90
2017-09-04T00:04:18.650Z,99.90
2017-09-04T00:06:47.002Z,99.90
2017-09-04T00:09:15.347Z,99.90
2017-09-04T00:11:43.666Z,99.90
2017-09-04T00:14:12.042Z,99.90
2017-09-04T00:16:40.358Z,99.90
2017-09-04T00:19:08.791Z,99.90
2017-09-04T00:21:37.078Z,99.90
2017-09-04T00:24:05.442Z,99.90
2017-09-04T00:26:33.763Z,99.90
2017-09-04T00:29:02.106Z,99.90
2017-09-04T00:31:31.290Z,99.90
2017-09-04T00:33:59.671Z,99.90
2017-09-04T00:36:27.983Z,99.90
2017-09-04T00:38:56.259Z,99.90
2017-09-04T00:41:24.603Z,99.90
2017-09-04T00:43:52.986Z,99.90
2017-09-04T00:46:21.278Z,99.90
2017-09-04T00:48:49.954Z,99.90
2017-09-04T00:51:18.233Z,99.90
2017-09-04T00:53:46.530Z,99.90
2017-09-04T00:56:14.838Z,99.90
2017-09-04T00:58:43.148Z,99.90
2017-09-04T01:01:11.482Z,99.90
2017-09-04T01:03:39.771Z,99.90
2017-09-04T01:06:08.197Z,99.90
2017-09-04T01:08:36.480Z,99.90
2017-09-04T01:11:04.834Z,99.90
2017-09-04T01:13:33.127Z,99.90
2017-09-04T01:16:01.492Z,99.90
2017-09-04T01:18:29.870Z,99.90
2017-09-04T01:20:58.656Z,99.90
2017-09-04T01:23:27.016Z,99.90
2017-09-04T01:25:55.308Z,99.90
2017-09-04T01:28:23.686Z,99.90
2017-09-04T01:30:51.974Z,99.90
2017-09-04T01:33:20.299Z,99.90
2017-09-04T01:35:48.614Z,99.90
2017-09-04T01:38:17.709Z,99.90
2017-09-04T01:40:46.003Z,99.90
2017-09-04T01:43:14.308Z,99.90
2017-09-04T01:45:42.619Z,99.90
2017-09-04T01:48:11.117Z,99.90
2017-09-04T01:50:39.478Z,99.90
2017-09-04T01:53:07.755Z,99.90
2017-09-04T01:55:36.086Z,99.90
2017-09-04T01:58:04.382Z,99.90
2017-09-04T02:00:32.717Z,99.90
2017-09-04T02:03:01.078Z,99.90
2017-09-04T02:05:29.390Z,99.90
2017-09-04T02:07:57.686Z,99.90
2017-09-04T02:10:26.014Z,99.90
2017-09-04T02:12:54.338Z,99.90
2017-09-04T02:15:22.698Z,99.90
2017-09-04T02:17:51.001Z,99.90
2017-09-04T02:20:19.632Z,99.90
2017-09-04T02:22:48.015Z,99.90
2017-09-04T02:25:16.375Z,99.90
2017-09-04T02:27:44.858Z,99.90
2017-09-04T02:30:13.239Z,99.90
2017-09-04T02:32:41.613Z,99.90
2017-09-04T02:35:09.906Z,99.90
2017-09-04T02:37:38.265Z,99.90
2017-09-04T02:40:06.577Z,99.90
2017-09-04T02:42:35.028Z,99.90
2017-09-04T02:45:03.351Z,99.90
2017-09-04T02:47:31.651Z,99.90
2017-09-04T02:49:59.979Z,99.90
2017-09-04T02:52:28.267Z,99.90
2017-09-04T02:54:56.598Z,99.90
2017-09-04T02:57:24.908Z,99.90
2017-09-04T02:59:53.271Z,99.90
2017-09-04T03:02:21.562Z,99.90
2017-09-04T03:04:50.015Z,99.90
2017-09-04T03:07:18.387Z,99.90
2017-09-04T03:09:46.775Z,99.90
2017-09-04T03:12:15.146Z,99.90
2017-09-04T03:14:47.631Z,99.90
2017-09-04T03:17:15.940Z,99.90
2017-09-04T03:19:44.606Z,99.90
2017-09-04T03:22:12.970Z,99.90
2017-09-04T03:24:41.295Z,99.90
2017-09-04T03:27:09.631Z,99.90
2017-09-04T03:29:37.936Z,99.90
2017-09-04T03:32:06.253Z,99.90
2017-09-04T03:34:34.555Z,99.90
2017-09-04T03:37:03.910Z,99.90
2017-09-04T03:39:32.207Z,99.90
2017-09-04T03:42:00.511Z,99.90
2017-09-04T03:44:28.851Z,99.90
2017-09-04T03:46:57.259Z,99.90
2017-09-04T03:49:25.563Z,99.90
2017-09-04T03:51:53.928Z,99.90
2017-09-04T03:54:22.251Z,99.90
2017-09-04T03:56:50.543Z,99.90
2017-09-04T03:59:18.853Z,99.90
2017-09-04T04:01:47.314Z,99.90
2017-09-04T04:04:15.674Z,99.90
2017-09-04T04:06:43.998Z,99.90
2017-09-04T04:09:12.340Z,99.90
2017-09-04T04:11:40.665Z,99.90
2017-09-04T04:14:09.123Z,99.90
2017-09-04T04:16:38.212Z,99.90
2017-09-04T04:19:06.687Z,99.90
2017-09-04T04:21:35.014Z,99.90
2017-09-04T04:24:03.341Z,99.90
2017-09-04T04:26:31.722Z,99.90
2017-09-04T04:29:00.043Z,99.90
2017-09-04T04:31:28.377Z,99.90
2017-09-04T04:33:56.674Z,99.90
2017-09-04T04:36:25.007Z,99.90
2017-09-04T04:38:53.304Z,99.90
2017-09-04T04:41:21.686Z,99.90
2017-09-04T04:43:49.975Z,99.90
2017-09-04T04:46:18.440Z,99.90
2017-09-04T04:48:47.536Z,99.90
2017-09-04T04:51:15.876Z,99.90
2017-09-04T04:53:44.158Z,99.90
2017-09-04T04:56:12.494Z,99.90
2017-09-04T04:58:40.812Z,99.90
2017-09-04T05:01:09.319Z,99.90
2017-09-04T05:03:37.698Z,99.90
2017-09-04T05:06:06.000Z,99.90
2017-09-04T05:08:34.310Z,99.90
2017-09-04T05:11:02.633Z,99.90
2017-09-04T05:13:31.003Z,99.90
2017-09-04T05:15:59.379Z,99.90
2017-09-04T05:18:27.754Z,99.90
2017-09-04T05:20:56.138Z,99.90
2017-09-04T05:23:24.555Z,99.90
2017-09-04T05:25:52.899Z,99.90
2017-09-04T05:28:21.958Z,99.90
2017-09-04T05:30:50.272Z,99.90
2017-09-04T05:33:18.638Z,99.90
2017-09-04T05:35:47.055Z,99.90
2017-09-04T05:38:15.370Z,99.90
2017-09-04T05:40:43.772Z,99.90
2017-09-04T05:43:12.859Z,99.90
2017-09-04T05:45:41.180Z,99.90
2017-09-04T05:48:09.483Z,99.90
2017-09-04T05:50:37.785Z,99.90
2017-09-04T05:53:06.080Z,99.90
2017-09-04T05:55:34.383Z,99.90
2017-09-04T05:58:02.730Z,99.90
2017-09-04T06:00:31.060Z,99.90
2017-09-04T06:02:59.582Z,99.90
2017-09-04T06:05:27.871Z,99.90
2017-09-04T06:07:56.167Z,99.90
2017-09-04T06:10:24.512Z,99.90
2017-09-04T06:12:52.896Z,99.90
2017-09-04T06:15:21.195Z,99.90
2017-09-04T06:17:49.488Z,99.90
2017-09-04T06:20:17.799Z,99.90
2017-09-04T06:22:46.101Z,99.90
2017-09-04T06:25:14.481Z,99.90
2017-09-04T06:27:43.544Z,99.90
2017-09-04T06:30:11.952Z,99.90
2017-09-04T06:32:40.322Z,99.90
2017-09-04T06:35:08.723Z,99.90
2017-09-04T06:37:37.084Z,99.90
2017-09-04T06:40:06.278Z,99.90
2017-09-04T06:42:34.580Z,99.90
2017-09-04T06:45:02.863Z,99.90
2017-09-04T06:47:31.179Z,99.90
2017-09-04T06:49:59.478Z,99.90
2017-09-04T06:52:27.777Z,99.90
2017-09-04T06:54:56.155Z,99.90
2017-09-04T06:57:24.463Z,99.90
2017-09-04T06:59:52.770Z,99.90
2017-09-04T07:02:21.114Z,99.90
2017-09-04T07:04:49.417Z,99.90
2017-09-04T07:07:17.751Z,99.90
2017-09-04T07:09:46.054Z,99.90
2017-09-04T07:12:14.662Z,99.90
2017-09-04T07:14:42.962Z,99.90
2017-09-04T07:17:11.565Z,99.90
2017-09-04T07:19:39.895Z,99.90
2017-09-04T07:22:08.175Z,99.90
2017-09-04T07:24:36.530Z,99.90
2017-09-04T07:27:04.819Z,99.90
2017-09-04T07:29:34.016Z,99.90
2017-09-04T07:32:02.320Z,99.90
2017-09-04T07:34:30.639Z,99.90
2017-09-04T07:36:58.919Z,99.90
2017-09-04T07:39:27.343Z,99.90
2017-09-04T07:41:55.666Z,99.90
2017-09-04T07:44:23.946Z,99.90
2017-09-04T07:46:52.263Z,99.90
2017-09-04T07:49:20.660Z,99.90
2017-09-04T07:51:49.139Z,99.90
2017-09-04T07:54:17.899Z,99.90
2017-09-04T07:56:46.212Z,99.90
2017-09-04T07:59:14.527Z,99.90
2017-09-04T08:01:43.586Z,99.90
2017-09-04T08:04:11.902Z,99.90
2017-09-04T08:06:40.250Z,99.90
2017-09-04T08:09:08.562Z,99.90
2017-09-04T08:11:37.034Z,99.90
2017-09-04T08:14:05.359Z,99.90
2017-09-04T08:16:34.748Z,99.90
2017-09-04T08:19:03.156Z,99.90
2017-09-04T08:21:31.576Z,99.90
2017-09-04T08:23:59.875Z,99.90
2017-09-04T08:26:28.352Z,99.90
2017-09-04T08:28:56.702Z,99.90
2017-09-04T08:31:25.015Z,99.90
2017-09-04T08:33:53.350Z,99.90
2017-09-04T08:36:21.698Z,99.90
2017-09-04T08:38:50.766Z,99.90
2017-09-04T08:41:19.129Z,99.90
2017-09-04T08:43:48.267Z,99.90
2017-09-04T08:46:16.568Z,99.90
2017-09-04T08:48:44.893Z,99.90
2017-09-04T08:51:13.187Z,99.90
2017-09-04T08:53:41.464Z,99.90
2017-09-04T08:56:09.834Z,99.90
2017-09-04T08:58:38.148Z,99.90
2017-09-04T09:01:06.439Z,99.90
2017-09-04T09:03:34.743Z,99.90
2017-09-04T09:06:03.063Z,99.90
2017-09-04T09:08:32.029Z,99.90
2017-09-04T09:11:01.340Z,99.90
2017-09-04T09:13:29.664Z,99.90
2017-09-04T09:15:58.368Z,99.90
2017-09-04T09:18:26.773Z,99.90
2017-09-04T09:20:55.972Z,99.90
2017-09-04T09:23:25.284Z,99.90
2017-09-04T09:25:53.661Z,99.90
2017-09-04T09:28:22.046Z,99.90
2017-09-04T09:30:50.387Z,99.90
2017-09-04T09:33:18.762Z,99.90
2017-09-04T09:35:47.076Z,99.90
2017-09-04T09:38:15.503Z,99.90
2017-09-04T09:40:43.800Z,99.90
2017-09-04T09:43:12.094Z,99.90
2017-09-04T09:45:40.397Z,99.90
2017-09-04T09:48:08.717Z,99.90
2017-09-04T09:50:37.148Z,99.90
2017-09-04T09:53:05.430Z,99.90
2017-09-04T09:55:33.738Z,99.90
2017-09-04T09:58:02.055Z,99.90
2017-09-04T10:00:30.409Z,99.90
2017-09-04T10:02:59.003Z,99.60
2017-09-04T10:05:27.292Z,99.00
2017-09-04T10:07:55.631Z,99.30
2017-09-04T10:10:23.918Z,97.80
2017-09-04T10:12:52.329Z,97.70
2017-09-04T10:15:20.624Z,98.50
2017-09-04T10:17:48.935Z,98.90
2017-09-04T10:20:17.246Z,98.50
2017-09-04T10:22:45.539Z,98.80
2017-09-04T10:25:13.866Z,98.90
2017-09-04T10:27:42.173Z,98.70
2017-09-04T10:30:10.515Z,97.70
2017-09-04T10:32:38.814Z,97.30
2017-09-04T10:35:07.315Z,97.30
2017-09-04T10:37:36.391Z,96.60
2017-09-04T10:40:04.694Z,96.60
2017-09-04T10:42:33.044Z,96.20
2017-09-04T10:45:01.381Z,95.70
2017-09-04T10:47:29.852Z,96.10
2017-09-04T10:49:58.148Z,96.10
2017-09-04T10:52:26.458Z,95.60
2017-09-04T10:54:54.759Z,95.20
2017-09-04T10:57:23.048Z,95.60
2017-09-04T10:59:51.494Z,95.20
2017-09-04T11:02:19.789Z,95.40
2017-09-04T11:04:48.066Z,95.50
2017-09-04T11:07:16.431Z,94.10
2017-09-04T11:09:44.823Z,94.70
2017-09-04T11:12:13.268Z,93.80
2017-09-04T11:14:41.586Z,93.50
2017-09-04T11:17:09.900Z,93.20
2017-09-04T11:19:38.284Z,93.40
2017-09-04T11:22:06.616Z,93.40
2017-09-04T11:24:34.965Z,93.40
2017-09-04T11:27:03.587Z,93.50
2017-09-04T11:29:31.906Z,93.30
2017-09-04T11:32:00.236Z,92.90
2017-09-04T11:34:28.558Z,92.10
2017-09-04T11:36:56.964Z,91.90
2017-09-04T11:39:25.288Z,91.10
2017-09-04T11:41:53.838Z,90.90
2017-09-04T11:44:22.158Z,90.50
2017-09-04T11:46:50.492Z,91.00
2017-09-04T11:49:18.806Z,90.80
2017-09-04T11:51:47.122Z,90.80
2017-09-04T11:54:15.447Z,90.70
2017-09-04T11:56:43.719Z,90.20
2017-09-04T11:59:12.163Z,88.70
2017-09-04T12:01:40.475Z,87.60
2017-09-04T12:04:08.830Z,86.90
2017-09-04T12:06:37.136Z,85.10
2017-09-04T12:09:05.443Z,84.10
2017-09-04T12:11:33.760Z,86.90
2017-09-04T12:14:02.058Z,84.40
2017-09-04T12:16:30.504Z,84.70
2017-09-04T12:18:58.800Z,85.50
2017-09-04T12:21:27.575Z,84.30
2017-09-04T12:23:56.758Z,83.50
2017-09-04T12:26:25.041Z,83.40
2017-09-04T12:28:53.350Z,84.10
2017-09-04T12:31:21.655Z,85.30
2017-09-04T12:33:49.975Z,84.10
2017-09-04T12:36:18.282Z,83.70
2017-09-04T12:38:46.635Z,82.20
2017-09-04T12:41:15.263Z,84.60
2017-09-04T12:43:43.600Z,85.20
2017-09-04T12:46:11.890Z,83.70
2017-09-04T12:48:40.350Z,79.10
2017-09-04T12:51:08.728Z,81.40
2017-09-04T12:53:37.033Z,81.40
2017-09-04T12:56:05.351Z,78.90
2017-09-04T12:58:33.747Z,78.80
2017-09-04T13:01:02.079Z,79.30
2017-09-04T13:03:30.399Z,77.30
2017-09-04T13:05:58.890Z,77.80
2017-09-04T13:08:27.164Z,76.80
2017-09-04T13:11:01.489Z,75.10
2017-09-04T13:13:29.778Z,73.30
2017-09-04T13:16:00.911Z,74.40
2017-09-04T13:18:35.122Z,71.50
2017-09-04T13:21:09.433Z,71.40
2017-09-04T13:23:43.490Z,71.00
2017-09-04T13:26:17.547Z,72.30
2017-09-04T13:28:51.460Z,71.50
2017-09-04T13:51:58.916Z,73.00
2017-09-04T13:54:30.007Z,72.60
2017-09-04T13:57:01.240Z,75.60
2017-09-04T14:13:03.369Z,74.60
2017-09-04T14:28:55.915Z,73.90
2017-09-04T14:31:24.219Z,74.40
2017-09-04T14:33:52.495Z,74.10
2017-09-04T14:36:20.871Z,75.00
2017-09-04T14:38:49.160Z,74.70
2017-09-04T14:41:20.337Z,75.20
2017-09-04T14:46:51.952Z,73.40
2017-09-04T14:49:20.283Z,72.80
2017-09-04T14:51:48.605Z,74.20
2017-09-04T14:54:18.044Z,72.00
2017-09-04T14:56:46.364Z,72.00
2017-09-04T14:59:14.654Z,73.30
2017-09-04T15:01:43.155Z,71.20
2017-09-04T15:04:11.538Z,72.50
2017-09-04T15:06:39.869Z,72.80
2017-09-04T15:09:08.180Z,72.50
2017-09-04T15:11:36.779Z,71.60
2017-09-04T15:14:05.880Z,69.60
2017-09-04T15:16:34.201Z,69.50
2017-09-04T15:19:02.631Z,70.40
2017-09-04T15:21:30.964Z,68.80
2017-09-04T15:23:59.301Z,69.00
2017-09-04T15:26:27.668Z,67.60
2017-09-04T15:28:55.985Z,69.00
2017-09-04T15:31:24.277Z,68.00
2017-09-04T15:33:52.656Z,64.60
2017-09-04T15:36:20.922Z,64.90
2017-09-04T15:38:49.543Z,63.80
2017-09-04T15:41:17.855Z,64.00
2017-09-04T15:43:46.141Z,62.90
2017-09-04T15:46:14.466Z,65.60
2017-09-04T15:48:42.754Z,65.20
2017-09-04T15:51:11.067Z,63.80
2017-09-04T15:53:39.388Z,64.40
2017-09-04T15:56:07.882Z,62.40
2017-09-04T15:58:36.196Z,62.40
2017-09-04T16:01:04.494Z,64.50
2017-09-04T16:03:32.795Z,64.70
2017-09-04T16:06:11.911Z,65.00
2017-09-04T16:08:40.267Z,64.20
2017-09-04T16:11:09.494Z,62.60
2017-09-04T16:27:24.844Z,61.60
2017-09-04T16:29:53.376Z,62.90
2017-09-04T16:32:38.300Z,64.30
2017-09-04T16:35:24.434Z,66.10
2017-09-04T16:51:29.631Z,71.30
2017-09-04T16:53:57.943Z,71.60
2017-09-04T16:56:28.175Z,71.50
2017-09-04T16:58:56.487Z,72.70
2017-09-04T17:01:24.913Z,72.40
2017-09-04T17:03:53.244Z,73.20
2017-09-04T17:06:21.562Z,74.00
2017-09-04T17:22:17.253Z,76.90
2017-09-04T17:24:45.587Z,77.40
2017-09-04T17:27:13.904Z,77.50
2017-09-04T17:29:42.240Z,77.90
2017-09-04T17:32:10.599Z,78.80
2017-09-04T17:34:39.681Z,79.80
2017-09-04T17:37:08.009Z,79.70
2017-09-04T17:39:37.238Z,80.80
2017-09-04T17:42:05.635Z,80.70
2017-09-04T17:44:33.922Z,81.30
2017-09-04T17:47:02.238Z,82.40
2017-09-04T17:49:30.524Z,83.60
2017-09-04T17:51:58.861Z,83.90
2017-09-04T17:54:27.154Z,84.10
2017-09-04T17:56:55.679Z,85.30
2017-09-04T17:59:24.017Z,89.40
2017-09-04T18:01:52.331Z,90.50
2017-09-04T18:04:20.672Z,90.90
2017-09-04T18:06:48.990Z,91.40
2017-09-04T18:09:17.362Z,92.00
2017-09-04T18:11:45.962Z,92.10
2017-09-04T18:14:14.295Z,92.80
2017-09-04T18:16:42.602Z,93.50
2017-09-04T18:19:10.924Z,93.50
2017-09-04T18:21:39.259Z,94.20
2017-09-04T18:24:07.727Z,94.90
2017-09-04T18:26:36.111Z,95.50
2017-09-04T18:29:04.497Z,95.70
2017-09-04T18:31:33.596Z,96.80
2017-09-04T18:34:01.939Z,96.80
2017-09-04T18:36:30.271Z,97.30
2017-09-04T18:38:58.578Z,97.70
2017-09-04T18:41:27.002Z,98.20
2017-09-04T18:43:55.298Z,98.50
2017-09-04T18:46:23.628Z,98.80
2017-09-04T18:48:51.919Z,99.20
2017-09-04T18:51:21.015Z,99.70
2017-09-04T18:53:49.333Z,99.60
2017-09-04T18:56:17.767Z,99.90
2017-09-04T18:58:46.077Z,99.90
2017-09-04T19:01:14.399Z,99.90
2017-09-04T19:03:42.722Z,99.90
2017-09-04T19:06:11.024Z,99.90
2017-09-04T19:08:39.361Z,99.90
2017-09-04T19:11:07.726Z,99.90
2017-09-04T19:13:36.210Z,99.90
2017-09-04T19:16:04.554Z,99.90
2017-09-04T19:18:32.870Z,99.90
2017-09-04T19:21:01.690Z,99.90
2017-09-04T19:23:30.001Z,99.90
2017-09-04T19:25:58.323Z,99.90
2017-09-04T19:28:26.643Z,99.90
2017-09-04T19:30:54.956Z,99.90
2017-09-04T19:33:23.290Z,99.90
2017-09-04T19:35:51.654Z,99.90
2017-09-04T19:38:20.069Z,99.90
2017-09-04T19:40:48.448Z,99.90
2017-09-04T19:43:16.851Z,99.90
2017-09-04T19:45:45.337Z,99.90
2017-09-04T19:48:13.711Z,99.90
2017-09-04T19:50:42.096Z,99.90
2017-09-04T19:53:10.400Z,99.90
2017-09-04T19:55:38.735Z,99.90
2017-09-04T19:58:07.055Z,99.90
2017-09-04T20:00:35.391Z,99.90
2017-09-04T20:03:03.749Z,99.90
2017-09-04T20:05:32.169Z,99.90
2017-09-04T20:08:00.741Z,99.90
2017-09-04T20:10:29.043Z,99.90
2017-09-04T20:12:57.342Z,99.90
2017-09-04T20:15:25.661Z,99.90
2017-09-04T20:17:53.962Z,99.90
2017-09-04T20:20:22.299Z,99.90
2017-09-04T20:22:50.600Z,99.90
2017-09-04T20:25:18.949Z,99.90
2017-09-04T20:27:47.256Z,99.90
2017-09-04T20:30:16.387Z,99.90
2017-09-04T20:32:44.700Z,99.90
2017-09-04T20:35:13.203Z,99.90
2017-09-04T20:37:41.896Z,99.90
2017-09-04T20:40:10.269Z,99.90
2017-09-04T20:42:38.595Z,99.90
2017-09-04T20:45:07.009Z,99.90
2017-09-04T20:47:35.394Z,99.90
2017-09-04T20:50:03.691Z,99.90
2017-09-04T20:52:32.150Z,99.90
2017-09-04T20:55:00.645Z,99.90
2017-09-04T20:57:28.947Z,99.90
2017-09-04T20:59:57.271Z,99.90
2017-09-04T21:02:25.587Z,99.90
2017-09-04T21:04:53.911Z,99.90
2017-09-04T21:07:22.227Z,99.90
2017-09-04T21:09:50.542Z,99.90
2017-09-04T21:12:18.852Z,99.90
2017-09-04T21:14:47.355Z,99.90
2017-09-04T21:17:16.427Z,99.90
2017-09-04T21:19:44.727Z,99.90
2017-09-04T21:22:13.825Z,99.90
2017-09-04T21:24:42.119Z,99.90
2017-09-04T21:27:10.670Z,99.90
2017-09-04T21:29:38.995Z,99.90
2017-09-04T21:32:07.291Z,99.90
2017-09-04T21:34:35.648Z,99.90
2017-09-04T21:37:03.958Z,99.90
2017-09-04T21:39:32.294Z,99.90
2017-09-04T21:42:00.603Z,99.90
2017-09-04T21:44:28.922Z,99.90
2017-09-04T21:46:57.295Z,99.90
2017-09-04T21:49:25.984Z,99.90
2017-09-04T21:51:54.301Z,99.90
2017-09-04T21:54:22.833Z,99.90
2017-09-04T21:56:51.214Z,99.90
2017-09-04T21:59:19.575Z,99.90
2017-09-04T22:01:47.915Z,99.90
2017-09-04T22:04:16.235Z,99.90
2017-09-04T22:06:44.628Z,99.90
2017-09-04T22:09:12.940Z,99.90
2017-09-04T22:11:41.459Z,99.90
2017-09-04T22:14:09.754Z,99.90
2017-09-04T22:16:38.117Z,99.90
2017-09-04T22:19:06.430Z,99.90
2017-09-04T22:21:34.892Z,99.90
2017-09-04T22:24:03.379Z,99.90
2017-09-04T22:26:31.662Z,99.90
2017-09-04T22:29:00.019Z,99.90
2017-09-04T22:31:29.110Z,99.90
2017-09-04T22:33:57.426Z,99.90
2017-09-04T22:36:25.731Z,99.90
2017-09-04T22:38:54.101Z,99.90
2017-09-04T22:41:22.399Z,99.90
2017-09-04T22:43:51.111Z,99.90
2017-09-04T22:46:20.245Z,99.90
2017-09-04T22:48:48.542Z,99.90
2017-09-04T22:51:16.871Z,99.90
2017-09-04T22:53:45.188Z,99.90
2017-09-04T22:56:13.841Z,99.90
2017-09-04T22:58:42.151Z,99.90
2017-09-04T23:01:10.461Z,99.90
2017-09-04T23:03:38.763Z,99.90
2017-09-04T23:06:07.110Z,99.90
2017-09-04T23:08:35.433Z,99.90
2017-09-04T23:11:03.997Z,99.90
2017-09-04T23:13:32.315Z,99.90
2017-09-04T23:16:00.625Z,99.90
2017-09-04T23:18:28.946Z,99.90
2017-09-04T23:20:57.404Z,99.90
2017-09-04T23:23:26.076Z,99.90
2017-09-04T23:25:54.375Z,99.90
2017-09-04T23:28:22.735Z,99.90
2017-09-04T23:30:51.739Z,99.90
2017-09-04T23:33:20.198Z,99.90
2017-09-04T23:35:48.598Z,99.90
2017-09-04T23:38:17.679Z,99.90
2017-09-04T23:40:46.002Z,99.90
2017-09-04T23:43:14.349Z,99.90
2017-09-04T23:45:42.720Z,99.90
2017-09-04T23:48:11.034Z,99.90
2017-09-04T23:50:39.356Z,99.90
2017-09-04T23:53:07.663Z,99.90
2017-09-04T23:55:36.002Z,99.90
2017-09-04T23:58:04.294Z,99.90
